• Join FlightAware (Why Join?)
  • Login
  • US Flag 
04:56AM EDT


 

Airport Tracker/Info


-or-


 

Live Flight TrackerFlight Track Log ✈ TYR844 ✈ 01-Jul-2013 ✈ LATI / TIA - LOWW / VIE

Flight Track Log - Related Links

Times and Time Zones

All times are in EDT time to prevent confusion due to time zone crossing. See the TYR844 flight status page for this flight to view local times or setup timezone preferences in your user account.

Time Position Orientation Groundspeed Altitude Reporting Facility
EDT Latitude Longitude Course Direction KTS MPH feet Rate Location/Type
10:33PM 41.9916 19.4775 343° North  Level Estimated
10:34PM 42.0877 19.4366 342° North  Level Estimated
10:35PM 42.1838 19.3955 342° North  Level Estimated
10:36PM 42.2799 19.3544 342° North  Level Estimated
10:37PM 42.3759 19.3130 342° North  Level Estimated
10:38PM 42.4720 19.2716 342° North  Level Estimated
10:39PM 42.5680 19.2301 342° North  Level Estimated
10:40PM 42.6640 19.1884 342° North  Level Estimated
10:41PM 42.7600 19.1465 342° North  Level Estimated
10:42PM 42.8560 19.1046 342° North  Level Estimated
10:43PM 42.9519 19.0625 342° North  Level Estimated
10:44PM 43.0479 19.0203 342° North  Level Estimated
10:45PM 43.1438 18.9780 342° North  Level Estimated
10:46PM 43.2397 18.9355 342° North  Level Estimated
10:47PM 43.3356 18.8929 342° North  Level Estimated
10:48PM 43.4315 18.8501 342° North  Level Estimated
10:49PM 43.5274 18.8073 342° North  Level Estimated
10:50PM 43.6232 18.7642 342° North  Level Estimated
10:51PM 43.7191 18.7211 342° North  Level Estimated
10:52PM 43.8149 18.6778 342° North  Level Estimated
10:53PM 43.9107 18.6344 342° North  Level Estimated
10:54PM 44.0065 18.5908 342° North  Level Estimated
10:55PM 44.1022 18.5471 342° North  Level Estimated
10:56PM 44.1980 18.5033 342° North  Level Estimated
10:57PM 44.2937 18.4592 342° North  Level Estimated
10:58PM 44.3895 18.4151 342° North  Level Estimated
10:59PM 44.4852 18.3708 342° North  Level Estimated
11:00PM 44.5808 18.3264 342° North  Level Estimated
11:01PM 44.6765 18.2818 342° North  Level Estimated
11:02PM 44.7722 18.2371 342° North  Level Estimated
11:03PM 44.8678 18.1922 342° North  Level Estimated
11:04PM 44.9634 18.1472 342° North  Level Estimated
11:05PM 45.0590 18.1020 342° North  Level Estimated
11:06PM 45.1546 18.0567 342° North  Level Estimated
11:07PM 45.2502 18.0112 341° North  Level Estimated
11:08PM 45.3457 17.9656 341° North  Level Estimated
11:09PM 45.4412 17.9198 341° North  Level Estimated
11:10PM 45.5367 17.8739 341° North  Level Estimated
11:11PM 45.6322 17.8278 341° North  Level Estimated
11:12PM 45.7277 17.7815 341° North  Level Estimated
11:13PM 45.8232 17.7351 341° North  Level Estimated
11:14PM 45.9186 17.6886 341° North  Level Estimated
11:15PM 46.0140 17.6418 341° North  Level Estimated
11:16PM 46.1094 17.5949 341° North  Level Estimated
11:17PM 46.2048 17.5479 341° North  Level Estimated
11:18PM 46.3001 17.5007 341° North  Level Estimated
11:19PM 46.3955 17.4533 341° North  Level Estimated
11:20PM 46.4908 17.4058 341° North  Level Estimated
11:21PM 46.5861 17.3580 341° North  Level Estimated
11:22PM 46.6814 17.3102 341° North  Level Estimated
11:23PM 46.7766 17.2621 341° North  Level Estimated
11:24PM 46.8718 17.2139 341° North  Level Estimated
11:25PM 46.9671 17.1655 341° North  Level Estimated
11:26PM 47.0623 17.1169 341° North  Level Estimated
11:27PM 47.1574 17.0682 341° North  Level Estimated
11:28PM 47.2526 17.0193 341° North  Level Estimated
11:29PM 47.3477 16.9702 341° North  Level Estimated
11:30PM 47.4428 16.9209 341° North  Level Estimated
11:31PM 47.5379 16.8714 341° North  Level Estimated
11:32PM 47.6330 16.8218 341° North  Level Estimated
11:33PM 47.7280 16.7720 341° North  Level Estimated
11:34PM 47.8231 16.7220 341° North  Level Estimated
11:35PM 47.9181 16.6718 341° North  Level Estimated
11:36PM 48.0131 16.6215 340° North  Level Estimated
11:37PM 48.1080 16.5709 340° North  Level Estimated
11:38PM 48.1103 16.5697 340° North  Level Estimated
11:39PM 48.1103 16.5697 146° Southeast  Level Estimated
11:40PM 48.1103 16.5697 146° Southeast  Level Estimated
11:41PM 48.1103 16.5697 146° Southeast  Level Estimated
11:42PM 48.1103 16.5697 146° Southeast  Level Estimated
11:43PM 48.1103 16.5697 146° Southeast  Level Estimated
11:44PM 48.1103 16.5697 146° Southeast  Level Estimated
11:45PM 48.1103 16.5697 146° Southeast  Level Estimated
11:46PM 48.1103 16.5697 146° Southeast  Level Estimated
11:47PM 48.1103 16.5697 146° Southeast  Level Estimated
11:48PM 48.1103 16.5697 146° Southeast  Level Estimated
11:49PM 48.1103 16.5697 146° Southeast  Level Estimated
11:50PM 48.1103 16.5697 146° Southeast  Level Estimated
11:51PM 48.1103 16.5697 146° Southeast  Level Estimated
11:52PM 48.1103 16.5697 146° Southeast  Level Estimated
11:53PM 48.1103 16.5697 146° Southeast  Level Estimated